Time;durP1;ratioP1;P1;durP2;ratioP2;P2;SDS_P1;SDS_P2;PMS_P1;PMS_P2;Temp;Humidity;BMP_temperature;BMP_pressure;BME280_temperature;BME280_humidity;BME280_pressure;Samples;Min_cycle;Max_cycle;Signal;HPM_P1;HPM_P2
2020/12/04 00:00:36;;;;;;;48.27;24.13;;;;;;;0.48;71.00;98284.58;126120;1098;104407;-72
2020/12/04 00:03:07;;;;;;;44.90;22.07;;;;;;;0.47;71.13;98288.11;126871;1098;104423;-73
2020/12/04 00:05:35;;;;;;;39.87;18.33;;;;;;;0.46;71.01;98285.55;126455;1099;104455;-72
2020/12/04 00:08:02;;;;;;;47.40;23.33;;;;;;;0.39;71.52;98282.36;126363;1093;104416;-72
2020/12/04 00:10:29;;;;;;;45.47;22.23;;;;;;;0.39;71.44;98272.77;126035;1094;104467;-75
2020/12/04 00:12:56;;;;;;;45.97;23.63;;;;;;;0.43;71.24;98269.06;126124;1094;104446;-72
2020/12/04 00:15:23;;;;;;;43.30;21.47;;;;;;;0.41;70.73;98264.83;126112;1099;104528;-73
2020/12/04 00:17:49;;;;;;;41.63;21.50;;;;;;;0.39;71.02;98266.66;126231;1098;104515;-72
2020/12/04 00:20:17;;;;;;;43.60;22.27;;;;;;;0.27;71.24;98265.44;126128;1098;104497;-73
2020/12/04 00:22:43;;;;;;;38.53;19.07;;;;;;;0.13;70.89;98260.81;126131;1098;104484;-74
2020/12/04 00:25:11;;;;;;;43.73;22.57;;;;;;;0.05;71.14;98263.73;126061;1098;104423;-72
2020/12/04 00:27:38;;;;;;;40.85;18.90;;;;;;;0.02;71.20;98281.33;126107;1098;104465;-71
2020/12/04 00:30:08;;;;;;;40.77;19.33;;;;;;;-0.11;71.27;98270.55;126117;1098;104484;-72
2020/12/04 00:32:35;;;;;;;43.23;21.37;;;;;;;-0.21;71.07;98281.38;126100;1098;104442;-72
2020/12/04 00:35:03;;;;;;;42.85;20.05;;;;;;;-0.27;71.24;98281.62;126671;1098;104424;-72
2020/12/04 00:37:30;;;;;;;45.47;21.87;;;;;;;-0.37;71.21;98291.62;126098;1099;104415;-72
2020/12/04 00:39:57;;;;;;;45.73;22.20;;;;;;;-0.42;70.51;98290.11;126099;1098;104453;-72
2020/12/04 00:42:24;;;;;;;43.20;21.17;;;;;;;-0.44;71.42;98284.94;126180;1098;104497;-72
2020/12/04 00:44:51;;;;;;;47.20;24.43;;;;;;;-0.43;70.93;98273.57;126074;1098;104528;-71
2020/12/04 00:47:18;;;;;;;46.35;21.15;;;;;;;-0.39;71.25;98272.53;126714;1099;104448;-72
2020/12/04 00:49:45;;;;;;;48.30;23.83;;;;;;;-0.42;71.39;98267.44;126324;1098;104452;-74
2020/12/04 00:52:11;;;;;;;44.43;23.30;;;;;;;-0.40;71.29;98264.74;126092;1098;104475;-71
2020/12/04 00:54:39;;;;;;;48.43;25.07;;;;;;;-0.40;70.56;98268.22;126038;1098;104478;-73
2020/12/04 00:57:08;;;;;;;43.90;20.63;;;;;;;-0.41;71.16;98256.07;126088;1100;104482;-71
2020/12/04 00:59:34;;;;;;;42.73;20.37;;;;;;;-0.41;71.40;98263.08;126069;1098;104442;-71
2020/12/04 01:02:01;;;;;;;48.23;24.85;;;;;;;-0.40;71.09;98254.30;126064;1098;104411;-73
2020/12/04 01:04:28;;;;;;;47.07;22.83;;;;;;;-0.33;71.08;98248.77;126063;1098;104544;-72
2020/12/04 01:06:56;;;;;;;47.20;23.67;;;;;;;-0.27;71.69;98244.20;126755;1098;104438;-71
2020/12/04 01:09:22;;;;;;;46.53;23.53;;;;;;;-0.22;71.42;98240.47;126086;1098;104544;-72
2020/12/04 01:11:51;;;;;;;46.18;20.82;;;;;;;-0.20;71.37;98232.55;126147;1098;104539;-72
2020/12/04 01:14:18;;;;;;;42.47;20.77;;;;;;;-0.21;71.13;98230.89;126058;1099;104637;-71
2020/12/04 01:16:47;;;;;;;43.33;20.97;;;;;;;-0.25;71.26;98242.38;126085;1100;104523;-71
2020/12/04 01:19:14;;;;;;;39.75;18.55;;;;;;;-0.27;71.37;98246.81;126119;1098;104906;-71
2020/12/04 01:21:48;;;;;;;45.70;22.00;;;;;;;-0.31;70.70;98246.95;126144;1098;104542;-72
2020/12/04 01:24:16;;;;;;;44.30;20.17;;;;;;;-0.29;71.42;98251.26;126160;1098;104426;-73
2020/12/04 01:26:43;;;;;;;38.03;18.03;;;;;;;-0.31;71.39;98254.78;126121;1098;104618;-72
2020/12/04 01:29:10;;;;;;;38.77;18.83;;;;;;;-0.33;70.91;98245.29;126078;1098;104446;-73
2020/12/04 01:31:38;;;;;;;40.30;19.80;;;;;;;-0.37;70.83;98239.36;125892;1098;104541;-72
2020/12/04 01:34:09;;;;;;;42.05;20.35;;;;;;;-0.34;71.02;98230.52;126038;1098;104579;-72
2020/12/04 01:36:38;;;;;;;;;;;;;;;-0.33;71.13;98240.93;127348;1099;104417;-71
2020/12/04 01:39:05;;;;;;;40.48;17.77;;;;;;;-0.35;71.47;98231.44;126120;1099;104555;-72
2020/12/04 01:41:34;;;;;;;45.07;21.13;;;;;;;-0.37;71.52;98230.65;126111;1099;104522;-72
2020/12/04 01:44:01;;;;;;;43.73;20.17;;;;;;;-0.38;71.43;98229.81;126274;1098;104547;-72
2020/12/04 01:46:30;;;;;;;40.17;18.30;;;;;;;-0.39;71.42;98230.73;125915;1098;104638;-73
2020/12/04 01:48:57;;;;;;;39.15;17.80;;;;;;;-0.41;71.59;98235.17;126082;1093;104419;-71
2020/12/04 01:51:25;;;;;;;42.20;19.90;;;;;;;-0.41;71.28;98229.94;126211;1098;104894;-72
2020/12/04 01:53:53;;;;;;;38.83;18.23;;;;;;;-0.41;71.18;98221.27;126065;1098;104500;-70
2020/12/04 01:56:20;;;;;;;37.50;17.67;;;;;;;-0.42;70.79;98215.17;126103;1098;104542;-71
2020/12/04 01:58:47;;;;;;;39.63;18.70;;;;;;;-0.41;71.67;98218.66;126094;1098;104414;-71
2020/12/04 02:01:17;;;;;;;38.90;17.87;;;;;;;-0.42;71.34;98222.18;126128;1098;104502;-72
2020/12/04 02:03:45;;;;;;;41.93;18.40;;;;;;;-0.44;71.41;98213.55;126084;1100;104663;-71
2020/12/04 02:06:23;;;;;;;39.93;18.20;;;;;;;-0.47;71.37;98206.67;126108;1098;104462;-71
2020/12/04 02:09:01;;;;;;;37.60;18.03;;;;;;;-0.49;70.96;98195.44;126007;1100;104509;-71
2020/12/04 02:11:31;;;;;;;43.67;17.40;;;;;;;-0.50;71.50;98191.12;126690;1098;104479;-71
2020/12/04 02:13:58;;;;;;;39.70;17.77;;;;;;;-0.53;71.50;98180.80;126085;1098;104558;-71
2020/12/04 02:16:27;;;;;;;42.10;18.73;;;;;;;-0.54;71.23;98190.41;126064;1093;104677;-71
2020/12/04 02:18:55;;;;;;;39.70;19.30;;;;;;;-0.54;71.46;98200.87;126110;1098;104477;-71
2020/12/04 02:21:22;;;;;;;40.83;19.30;;;;;;;-0.55;71.85;98206.14;126152;1099;104411;-71
2020/12/04 02:23:51;;;;;;;37.30;17.47;;;;;;;-0.55;71.13;98199.16;127115;1098;104413;-72
2020/12/04 02:26:22;;;;;;;34.97;16.00;;;;;;;-0.55;71.94;98198.30;126190;1098;104462;-71
2020/12/04 02:28:49;;;;;;;34.95;15.35;;;;;;;-0.57;71.89;98206.22;126128;1098;104586;-71
2020/12/04 02:31:16;;;;;;;38.17;17.80;;;;;;;-0.57;71.41;98207.96;126151;1098;104542;-70
2020/12/04 02:33:43;;;;;;;36.00;16.20;;;;;;;-0.56;71.40;98193.98;126158;1098;104529;-71
2020/12/04 02:36:11;;;;;;;36.35;18.15;;;;;;;-0.55;71.55;98195.69;125954;1100;104474;-72
2020/12/04 02:38:39;;;;;;;35.27;17.43;;;;;;;-0.57;71.95;98189.67;126098;1100;104472;-72
2020/12/04 02:41:09;;;;;;;39.37;18.33;;;;;;;-0.58;71.67;98199.29;126946;1098;104523;-73
2020/12/04 02:43:37;;;;;;;37.70;16.23;;;;;;;-0.55;71.87;98187.84;126268;1093;104534;-71
2020/12/04 02:46:07;;;;;;;39.00;17.90;;;;;;;-0.53;71.45;98194.73;126176;1098;104522;-72
2020/12/04 02:48:35;;;;;;;38.93;18.33;;;;;;;-0.52;71.58;98183.36;126006;1099;104502;-72
2020/12/04 02:51:06;;;;;;;36.00;16.70;;;;;;;-0.49;71.95;98187.59;126122;1098;104554;-73
2020/12/04 02:53:35;;;;;;;37.77;17.47;;;;;;;-0.51;71.63;98187.68;127315;1098;102934;-72
2020/12/04 02:56:02;;;;;;;37.70;17.03;;;;;;;-0.50;71.58;98186.77;126109;1098;104421;-73
2020/12/04 02:58:31;;;;;;;39.33;19.20;;;;;;;-0.49;71.64;98182.38;126113;1098;104446;-72
2020/12/04 03:00:59;;;;;;;37.60;16.60;;;;;;;-0.50;71.94;98180.67;126128;1098;104416;-72
2020/12/04 03:03:26;;;;;;;42.33;17.10;;;;;;;-0.49;71.83;98172.79;126076;1098;104435;-71
2020/12/04 03:05:53;;;;;;;38.03;16.77;;;;;;;-0.49;71.45;98178.02;126160;1098;104522;-71
2020/12/04 03:08:20;;;;;;;37.20;18.10;;;;;;;-0.48;72.09;98179.71;126417;1098;104580;-72
2020/12/04 03:10:47;;;;;;;39.67;18.77;;;;;;;-0.47;72.08;98177.94;126195;1098;104545;-71
2020/12/04 03:13:14;;;;;;;36.20;17.17;;;;;;;-0.47;72.19;98181.41;126211;1099;104868;-71
2020/12/04 03:15:41;;;;;;;40.05;17.48;;;;;;;-0.45;71.67;98176.11;126173;1098;104507;-71
2020/12/04 03:18:08;;;;;;;38.67;17.23;;;;;;;-0.45;71.61;98183.95;126066;1098;104443;-71
2020/12/04 03:20:35;;;;;;;40.27;17.83;;;;;;;-0.44;71.66;98188.26;126217;1098;104926;-71
2020/12/04 03:23:02;;;;;;;35.85;17.05;;;;;;;-0.46;72.05;98175.27;126095;1099;104474;-71
2020/12/04 03:25:31;;;;;;;32.93;14.63;;;;;;;-0.43;72.03;98182.13;127292;1098;104413;-72
2020/12/04 03:27:58;;;;;;;34.80;15.27;;;;;;;-0.40;71.37;98176.77;126081;1098;104583;-71
2020/12/04 03:30:25;;;;;;;34.70;16.97;;;;;;;-0.39;72.13;98172.37;126068;1098;104410;-71
2020/12/04 03:32:53;;;;;;;38.97;17.30;;;;;;;-0.40;71.56;98175.91;126141;1093;104414;-71
2020/12/04 03:35:20;;;;;;;33.63;15.53;;;;;;;-0.39;71.79;98175.85;126102;1098;104544;-71
2020/12/04 03:37:47;;;;;;;37.50;16.53;;;;;;;-0.39;71.66;98170.63;126086;1099;104459;-71
2020/12/04 03:40:14;;;;;;;35.83;15.63;;;;;;;-0.38;72.04;98171.46;126091;1098;104411;-71
2020/12/04 03:42:41;;;;;;;38.85;18.55;;;;;;;-0.38;71.96;98166.23;126143;1098;104509;-71
2020/12/04 03:45:08;;;;;;;33.80;15.87;;;;;;;-0.37;71.88;98174.03;126102;1098;104445;-71
2020/12/04 03:47:38;;;;;;;33.35;14.60;;;;;;;-0.36;71.35;98165.27;126277;1098;104435;-72
2020/12/04 03:50:07;;;;;;;32.03;14.70;;;;;;;-0.35;72.09;98166.11;126092;1098;105047;-72
2020/12/04 03:52:34;;;;;;;35.33;16.20;;;;;;;-0.32;71.85;98161.62;125853;1093;104601;-72
2020/12/04 03:55:01;;;;;;;35.97;16.80;;;;;;;-0.31;71.85;98178.13;126061;1098;104475;-71
2020/12/04 03:57:28;;;;;;;35.13;15.13;;;;;;;-0.31;71.58;98172.91;126069;1098;104417;-71
2020/12/04 03:59:55;;;;;;;35.30;16.80;;;;;;;-0.35;71.36;98169.59;126117;1098;104414;-71
2020/12/04 04:02:22;;;;;;;35.67;16.63;;;;;;;-0.39;71.30;98175.85;126080;1098;104691;-71
2020/12/04 04:04:50;;;;;;;35.28;15.75;;;;;;;-0.40;72.13;98173.29;126164;1098;104417;-70
2020/12/04 04:07:17;;;;;;;37.17;16.23;;;;;;;-0.40;71.55;98174.16;127034;1098;104423;-70
2020/12/04 04:09:44;;;;;;;33.50;14.30;;;;;;;-0.39;72.04;98167.15;125944;1098;104595;-71
2020/12/04 04:12:11;;;;;;;39.23;17.60;;;;;;;-0.39;71.79;98160.17;126049;1098;104516;-70
2020/12/04 04:14:38;;;;;;;43.20;21.17;;;;;;;-0.32;72.15;98171.20;126060;1098;104577;-72
2020/12/04 04:17:07;;;;;;;40.87;20.10;;;;;;;-0.26;71.74;98165.72;126867;1099;104422;-70
2020/12/04 04:19:35;;;;;;;39.30;19.37;;;;;;;-0.15;72.37;98167.86;127132;1098;104603;-71
2020/12/04 04:22:02;;;;;;;39.77;19.07;;;;;;;-0.01;71.99;98172.52;126099;1098;104429;-71
2020/12/04 04:24:29;;;;;;;38.93;19.73;;;;;;;0.09;71.98;98170.33;126065;1098;104601;-71
2020/12/04 04:26:56;;;;;;;39.77;19.50;;;;;;;0.11;71.53;98165.88;126051;1098;105002;-71
2020/12/04 04:29:23;;;;;;;44.07;21.50;;;;;;;0.16;71.89;98176.12;126075;1098;104897;-71
2020/12/04 04:31:51;;;;;;;40.73;19.57;;;;;;;0.16;71.84;98168.28;125904;1098;104483;-71
2020/12/04 04:34:20;;;;;;;43.40;20.70;;;;;;;0.19;71.89;98179.47;126104;1098;104446;-71
2020/12/04 04:36:48;;;;;;;43.17;20.73;;;;;;;0.22;71.71;98181.09;127125;1098;103460;-71
2020/12/04 04:39:16;;;;;;;45.10;21.93;;;;;;;0.14;71.33;98160.52;126649;1098;104423;-72
2020/12/04 04:41:44;;;;;;;42.80;20.87;;;;;;;0.14;71.71;98163.13;126141;1098;104504;-72
2020/12/04 04:44:12;;;;;;;38.20;18.03;;;;;;;0.12;71.72;98173.65;126091;1098;104436;-71
2020/12/04 04:47:06;;;;;;;39.60;19.40;;;;;;;0.01;71.96;98170.65;126097;1098;104429;-71
2020/12/04 04:49:40;;;;;;;42.30;21.80;;;;;;;-0.02;71.95;98176.88;126087;1098;104420;-71
2020/12/04 04:52:10;;;;;;;44.07;22.73;;;;;;;0.02;71.96;98172.35;126090;1098;104532;-71
2020/12/04 04:54:44;;;;;;;42.70;20.90;;;;;;;0.01;71.77;98172.43;126102;1098;104500;-72
2020/12/04 04:57:14;;;;;;;38.37;18.27;;;;;;;-0.14;71.42;98177.41;126099;1100;104544;-72
2020/12/04 04:59:41;;;;;;;41.13;18.07;;;;;;;-0.24;71.54;98178.73;126096;1098;104595;-71
2020/12/04 05:02:15;;;;;;;34.83;17.40;;;;;;;-0.33;71.81;98172.13;125951;1100;104667;-71
2020/12/04 05:04:54;;;;;;;39.13;19.00;;;;;;;-0.38;71.71;98176.69;126243;1098;104528;-71
2020/12/04 05:07:36;;;;;;;44.33;22.53;;;;;;;-0.43;72.02;98173.45;126079;1098;104545;-71
2020/12/04 05:10:16;;;;;;;47.63;23.17;;;;;;;-0.48;71.75;98171.87;126093;1099;104465;-71
2020/12/04 05:12:58;;;;;;;45.10;21.80;;;;;;;-0.50;71.35;98165.86;125908;1100;104443;-72
2020/12/04 05:15:30;;;;;;;45.33;22.10;;;;;;;-0.54;71.35;98163.42;125908;1093;104439;-72
2020/12/04 05:18:03;;;;;;;42.43;22.20;;;;;;;-0.56;71.84;98160.89;125845;1100;104437;-72
2020/12/04 05:20:33;;;;;;;46.67;23.70;;;;;;;-0.57;72.14;98161.80;126101;1098;104554;-73
2020/12/04 05:23:03;;;;;;;44.07;22.67;;;;;;;-0.56;71.57;98158.28;125850;1100;104497;-72
2020/12/04 05:25:41;;;;;;;34.63;15.77;;;;;;;-0.56;71.72;98150.44;126262;1098;104420;-71
2020/12/04 05:28:12;;;;;;;44.57;20.27;;;;;;;-0.61;72.32;98150.62;126113;1098;104767;-72
2020/12/04 05:30:41;;;;;;;39.90;18.57;;;;;;;-0.63;71.61;98143.77;125819;1100;104590;-72
2020/12/04 05:33:10;;;;;;;45.27;22.77;;;;;;;-0.67;71.33;98148.29;127159;1098;104445;-71
2020/12/04 05:35:39;;;;;;;45.17;20.97;;;;;;;-0.64;71.86;98142.94;126071;1098;104881;-72
2020/12/04 05:38:14;;;;;;;41.30;20.27;;;;;;;-0.61;71.66;98139.34;125927;1100;104576;-72
2020/12/04 05:40:51;;;;;;;40.83;20.67;;;;;;;-0.61;72.11;98134.11;126102;1098;104557;-73
2020/12/04 05:43:31;;;;;;;42.90;21.07;;;;;;;-0.64;72.17;98139.46;126070;1098;104340;-75
2020/12/04 05:46:30;;;;;;;39.43;18.77;;;;;;;-0.70;71.34;98135.36;127311;1098;104522;-72
2020/12/04 05:49:04;;;;;;;48.47;21.63;;;;;;;-0.77;71.54;98147.80;126053;1100;104580;-72
2020/12/04 05:51:34;;;;;;;55.63;25.57;;;;;;;-0.81;71.67;98130.55;126681;1100;104482;-73
2020/12/04 05:54:04;;;;;;;45.43;21.27;;;;;;;-0.79;71.85;98138.34;125902;1100;104586;-72
2020/12/04 05:56:33;;;;;;;44.43;21.63;;;;;;;-0.81;71.60;98130.55;125877;1098;104481;-73
2020/12/04 05:59:06;;;;;;;47.13;20.17;;;;;;;-0.83;71.55;98139.38;125879;1100;104483;-72
2020/12/04 06:01:33;;;;;;;42.30;19.43;;;;;;;-0.88;71.81;98143.94;126086;1098;104570;-73
2020/12/04 06:04:04;;;;;;;50.13;23.57;;;;;;;-0.92;71.76;98138.00;125959;1100;104528;-73
2020/12/04 06:06:32;;;;;;;43.60;22.20;;;;;;;-0.92;72.12;98143.23;126352;1098;104759;-72
2020/12/04 06:09:05;;;;;;;45.83;21.23;;;;;;;-0.91;72.26;98150.15;126106;1100;104507;-72
2020/12/04 06:11:53;;;;;;;43.27;20.23;;;;;;;-0.91;72.29;98148.37;126561;1098;104452;-72
2020/12/04 06:14:22;;;;;;;46.20;19.73;;;;;;;-0.91;71.80;98147.53;126271;1098;104554;-71
2020/12/04 06:17:02;;;;;;;42.77;19.47;;;;;;;-0.90;71.59;98144.02;126647;1098;104516;-72
2020/12/04 06:19:31;;;;;;;46.93;22.80;;;;;;;-0.91;71.91;98145.76;126458;1099;104634;-71
2020/12/04 06:22:18;;;;;;;40.83;18.63;;;;;;;-0.89;71.94;98153.55;125939;1100;104417;-72
2020/12/04 06:24:53;;;;;;;40.67;18.17;;;;;;;-0.88;71.43;98163.08;126221;1101;104561;-72
2020/12/04 06:27:44;;;;;;;42.23;19.47;;;;;;;-0.91;71.92;98164.03;126068;1098;104449;-72
2020/12/04 06:30:17;;;;;;;52.17;24.33;;;;;;;-0.91;71.65;98178.86;126156;1099;104612;-71
2020/12/04 06:32:46;;;;;;;41.93;18.83;;;;;;;-0.89;72.02;98171.82;125733;1098;103661;-72
2020/12/04 06:35:14;;;;;;;47.00;22.37;;;;;;;-0.86;71.67;98176.92;125955;1098;104474;-73
2020/12/04 06:37:43;;;;;;;44.50;20.20;;;;;;;-0.85;71.94;98177.76;125910;1094;104549;-73
2020/12/04 06:40:31;;;;;;;46.93;22.00;;;;;;;-0.83;72.09;98186.37;125913;1098;104578;-72
2020/12/04 06:43:00;;;;;;;46.73;20.93;;;;;;;-0.83;71.73;98189.86;125799;1099;104973;-72
2020/12/04 06:46:00;;;;;;;45.43;21.30;;;;;;;-0.82;71.78;98188.08;126300;1098;104475;-72
2020/12/04 06:48:27;;;;;;;44.13;19.93;;;;;;;-0.80;71.52;98202.77;125455;1093;104481;-70
2020/12/04 06:50:53;;;;;;;45.00;21.50;;;;;;;-0.77;72.56;98199.19;125760;1100;104856;-73
2020/12/04 06:53:21;;;;;;;39.47;19.43;;;;;;;-0.71;71.74;98196.34;125652;1100;104426;-72
2020/12/04 06:55:48;;;;;;;48.03;23.77;;;;;;;-0.65;71.83;98192.61;125932;1098;104477;-72
2020/12/04 06:58:15;;;;;;;46.77;24.97;;;;;;;-0.47;72.15;98212.77;125727;1100;104457;-73
2020/12/04 07:00:42;;;;;;;49.23;25.68;;;;;;;-0.28;73.14;98214.59;125707;1100;104522;-72
2020/12/04 07:03:10;;;;;;;51.93;25.40;;;;;;;-0.12;72.27;98213.95;125879;1098;104570;-73
2020/12/04 07:05:37;;;;;;;51.20;24.20;;;;;;;-0.07;72.54;98223.28;125690;1093;104548;-72
2020/12/04 07:08:06;;;;;;;47.37;24.00;;;;;;;0.01;72.12;98220.33;125740;1100;104489;-73
2020/12/04 07:10:34;;;;;;;53.67;25.33;;;;;;;0.05;72.08;98226.30;125756;1100;104555;-73
2020/12/04 07:13:04;;;;;;;52.50;26.40;;;;;;;0.10;72.02;98226.95;126275;1100;104420;-73
2020/12/04 07:15:32;;;;;;;59.97;27.73;;;;;;;0.23;72.21;98222.02;125690;1100;104570;-73
2020/12/04 07:18:00;;;;;;;56.97;28.47;;;;;;;0.36;72.79;98222.32;125760;1093;104506;-72
2020/12/04 07:20:34;;;;;;;52.90;26.60;;;;;;;0.49;73.01;98227.84;125686;1100;104504;-71
2020/12/04 07:23:05;;;;;;;59.43;28.80;;;;;;;0.58;72.53;98223.06;125720;1100;104500;-72
2020/12/04 07:25:33;;;;;;;57.13;27.17;;;;;;;0.65;72.70;98228.86;125749;1100;104497;-72
2020/12/04 07:28:01;;;;;;;53.23;26.63;;;;;;;0.64;72.43;98224.55;125655;1100;104557;-73
2020/12/04 07:30:29;;;;;;;54.83;27.17;;;;;;;0.67;72.19;98223.55;125714;1093;105076;-72
2020/12/04 07:32:56;;;;;;;54.23;26.53;;;;;;;0.78;72.65;98226.52;125664;1100;104516;-72
2020/12/04 07:35:24;;;;;;;55.23;25.77;;;;;;;0.87;72.55;98235.71;125670;1100;104554;-71
2020/12/04 07:37:51;;;;;;;56.97;27.87;;;;;;;0.98;72.53;98237.85;125891;1100;104531;-71
2020/12/04 07:40:18;;;;;;;58.27;28.17;;;;;;;1.07;72.45;98236.56;125708;1093;104483;-73
2020/12/04 07:42:45;;;;;;;55.67;27.57;;;;;;;1.14;72.84;98241.42;125698;1100;104484;-74
2020/12/04 07:45:17;;;;;;;61.13;29.83;;;;;;;1.23;72.51;98247.16;125712;1098;104419;-74
2020/12/04 07:47:44;;;;;;;62.30;30.60;;;;;;;1.28;72.19;98242.55;125714;1100;104558;-74
2020/12/04 07:50:14;;;;;;;73.50;37.37;;;;;;;1.32;72.23;98239.70;125481;1101;104433;-74
2020/12/04 07:52:51;;;;;;;75.03;36.83;;;;;;;1.40;72.51;98246.34;125664;1101;104413;-74
2020/12/04 07:55:21;;;;;;;73.33;34.83;;;;;;;1.45;72.27;98239.11;125848;1093;104429;-74
2020/12/04 07:58:02;;;;;;;73.47;34.17;;;;;;;1.48;72.24;98231.09;125932;1093;104414;-74
2020/12/04 08:00:32;;;;;;;65.77;33.93;;;;;;;1.50;72.05;98234.50;125869;1100;104547;-74
2020/12/04 08:03:03;;;;;;;67.70;33.90;;;;;;;1.51;72.84;98233.58;125872;1100;104577;-80
2020/12/04 08:05:35;;;;;;;69.83;34.40;;;;;;;1.54;72.58;98237.80;125884;1100;104501;-78
2020/12/04 08:08:04;;;;;;;63.93;34.43;;;;;;;1.53;72.12;98239.59;125817;1100;104586;-78
2020/12/04 08:10:31;;;;;;;74.33;37.57;;;;;;;1.52;72.32;98243.13;125880;1099;104504;-78
2020/12/04 08:12:59;;;;;;;65.40;31.70;;;;;;;1.58;72.40;98250.70;125856;1100;104906;-77
2020/12/04 08:15:26;;;;;;;65.60;30.57;;;;;;;1.64;72.28;98249.54;125841;1100;104551;-75
2020/12/04 08:18:06;;;;;;;72.77;37.97;;;;;;;1.70;72.56;98254.48;125858;1100;104611;-78
2020/12/04 08:20:33;;;;;;;63.07;33.73;;;;;;;1.76;72.53;98256.80;125897;1098;104448;-73
2020/12/04 08:23:00;;;;;;;55.10;28.70;;;;;;;1.76;71.89;98255.94;125880;1100;104528;-74
2020/12/04 08:25:30;;;;;;;57.90;29.80;;;;;;;1.82;72.09;98270.54;125876;1098;104990;-74
2020/12/04 08:28:00;;;;;;;61.73;31.27;;;;;;;1.89;72.21;98270.15;125987;1098;104417;-78
2020/12/04 08:30:29;;;;;;;59.77;29.87;;;;;;;1.97;72.37;98266.30;125614;1093;105700;-76
2020/12/04 08:32:59;;;;;;;62.20;31.10;;;;;;;2.05;72.51;98271.98;126062;1098;104554;-79
2020/12/04 08:35:35;;;;;;;62.73;30.33;;;;;;;2.12;72.77;98278.62;125969;1098;104499;-75
2020/12/04 08:38:07;;;;;;;61.03;31.13;;;;;;;2.21;72.69;98275.53;125883;1093;104436;-73
2020/12/04 08:40:36;;;;;;;56.50;29.07;;;;;;;2.28;72.21;98280.47;125925;1093;104455;-73
2020/12/04 08:43:19;;;;;;;80.07;45.27;;;;;;;2.35;72.68;98294.98;125730;1093;104538;-73
2020/12/04 08:45:48;;;;;;;98.15;51.80;;;;;;;2.41;72.04;98278.92;126066;1093;104433;-72
2020/12/04 08:48:18;;;;;;;69.00;33.03;;;;;;;2.47;72.95;98273.32;125932;1100;104544;-72
2020/12/04 08:50:51;;;;;;;65.13;32.87;;;;;;;2.52;72.15;98273.93;125906;1098;104509;-76
2020/12/04 08:53:20;;;;;;;66.53;33.70;;;;;;;2.60;72.14;98275.31;126122;1093;104441;-72
2020/12/04 08:55:58;;;;;;;65.90;33.93;;;;;;;2.66;72.05;98288.12;126116;1093;104420;-73
2020/12/04 08:58:27;;;;;;;63.73;32.23;;;;;;;2.70;72.09;98291.42;125864;1100;104446;-72
2020/12/04 09:00:57;;;;;;;68.40;34.43;;;;;;;2.74;72.66;98296.45;126130;1098;105059;-71
2020/12/04 09:03:27;;;;;;;60.13;33.40;;;;;;;2.75;72.05;98287.64;126110;1093;104673;-73
2020/12/04 09:05:55;;;;;;;65.63;32.80;;;;;;;2.74;72.04;98300.83;125902;1096;104558;-72
2020/12/04 09:08:23;;;;;;;63.53;33.83;;;;;;;2.76;72.13;98285.84;126003;1098;104410;-73
2020/12/04 09:10:50;;;;;;;61.53;32.70;;;;;;;2.77;71.78;98285.78;125980;1100;104484;-72
2020/12/04 09:13:17;;;;;;;70.27;36.13;;;;;;;2.80;71.98;98282.12;125844;1100;104580;-72
2020/12/04 09:15:47;;;;;;;64.13;32.97;;;;;;;2.77;72.11;98266.53;125983;1100;104628;-72
2020/12/04 09:18:16;;;;;;;192.27;102.63;;;;;;;2.79;72.22;98275.17;125925;1093;104448;-74
2020/12/04 09:20:43;;;;;;;131.37;68.50;;;;;;;2.77;71.53;98282.29;125871;1101;104628;-73
2020/12/04 09:23:10;;;;;;;67.50;36.50;;;;;;;2.76;72.22;98270.95;125831;1100;104501;-73
2020/12/04 09:25:38;;;;;;;61.53;31.73;;;;;;;2.77;72.25;98282.29;125862;1093;104793;-78
2020/12/04 09:28:17;;;;;;;63.27;31.77;;;;;;;2.77;72.63;98270.02;125869;1100;105011;-76
2020/12/04 09:30:44;;;;;;;58.37;30.43;;;;;;;2.79;72.16;98265.53;125841;1100;104933;-78
2020/12/04 09:33:11;;;;;;;65.17;32.40;;;;;;;2.83;72.26;98260.95;125930;1100;104417;-75
2020/12/04 09:35:38;;;;;;;63.80;32.63;;;;;;;2.91;72.49;98277.16;125900;1093;104443;-78
2020/12/04 09:38:05;;;;;;;116.63;58.47;;;;;;;2.99;72.63;98274.10;125911;1100;104558;-74
2020/12/04 09:40:32;;;;;;;73.73;38.47;;;;;;;3.08;72.54;98272.74;125929;1098;104484;-74
2020/12/04 09:42:59;;;;;;;68.00;34.45;;;;;;;3.13;71.83;98266.32;125971;1100;104484;-74
2020/12/04 09:45:29;;;;;;;67.10;35.93;;;;;;;3.19;71.85;98265.13;125911;1100;104522;-75
2020/12/04 09:47:57;;;;;;;66.73;32.97;;;;;;;3.26;72.28;98273.53;125866;1100;104896;-73
2020/12/04 09:50:24;;;;;;;66.17;32.73;;;;;;;3.28;71.59;98261.13;125909;1100;104609;-72
2020/12/04 09:52:51;;;;;;;106.97;54.47;;;;;;;3.25;72.23;98262.16;125897;1100;104532;-73
2020/12/04 09:55:19;;;;;;;76.77;39.77;;;;;;;3.24;71.87;98255.20;125919;1100;104428;-74
2020/12/04 09:57:46;;;;;;;62.53;32.57;;;;;;;3.26;71.59;98252.51;125929;1100;104421;-73
2020/12/04 10:00:13;;;;;;;60.97;31.33;;;;;;;3.26;71.38;98255.97;125871;1101;104426;-74
2020/12/04 10:02:42;;;;;;;61.87;32.23;;;;;;;3.31;72.05;98262.75;125880;1098;104913;-73
2020/12/04 10:05:09;;;;;;;60.33;31.70;;;;;;;3.35;71.78;98251.14;125954;1101;104435;-72
2020/12/04 10:07:36;;;;;;;57.23;29.57;;;;;;;3.31;71.93;98246.98;125868;1100;104481;-75
2020/12/04 10:10:04;;;;;;;59.25;29.57;;;;;;;3.30;71.58;98251.38;125891;1100;104442;-74
2020/12/04 10:12:31;;;;;;;55.20;28.75;;;;;;;3.36;71.68;98244.95;125928;1100;104564;-73
2020/12/04 10:14:58;;;;;;;59.77;29.10;;;;;;;3.42;71.68;98241.98;126019;1099;104526;-73
2020/12/04 10:17:26;;;;;;;55.80;31.10;;;;;;;3.51;72.17;98249.31;125856;1100;104526;-74
2020/12/04 10:19:52;;;;;;;59.13;29.13;;;;;;;3.61;71.99;98272.47;125913;1100;104423;-74
2020/12/04 10:22:19;;;;;;;54.03;28.87;;;;;;;3.64;71.57;98267.03;125937;1098;104512;-73
2020/12/04 10:24:46;;;;;;;59.00;32.35;;;;;;;3.64;71.54;98272.30;125947;1100;104417;-72
2020/12/04 10:27:13;;;;;;;67.20;36.43;;;;;;;3.70;71.70;98264.05;125964;1099;104414;-72
2020/12/04 10:29:40;;;;;;;61.70;32.10;;;;;;;3.75;72.06;98277.80;125732;1101;104487;-75
2020/12/04 10:32:07;;;;;;;52.93;28.83;;;;;;;3.79;72.00;98268.80;125653;1093;104563;-73
2020/12/04 10:34:35;;;;;;;62.58;31.80;;;;;;;3.80;71.87;98265.23;125564;1100;104503;-75
2020/12/04 10:37:05;;;;;;;63.35;31.60;;;;;;;3.83;71.70;98267.68;125409;1093;104434;-74
2020/12/04 10:39:33;;;;;;;62.10;31.85;;;;;;;3.83;72.08;98259.80;125602;1100;104640;-75
2020/12/04 10:42:05;;;;;;;64.07;33.97;;;;;;;3.84;72.03;98253.59;125686;1100;104544;-75
2020/12/04 10:44:35;;;;;;;60.27;32.83;;;;;;;3.83;71.49;98256.30;125643;1100;104529;-73
2020/12/04 10:47:02;;;;;;;61.47;32.67;;;;;;;3.76;71.62;98253.19;125683;1098;104468;-75
2020/12/04 10:49:29;;;;;;;67.47;36.50;;;;;;;3.74;71.89;98236.64;125695;1101;104570;-75
2020/12/04 10:51:57;;;;;;;66.90;35.45;;;;;;;3.77;71.92;98236.47;125672;1100;104423;-74
2020/12/04 10:54:27;;;;;;;60.83;32.13;;;;;;;3.82;71.95;98228.30;125652;1093;104469;-75
2020/12/04 10:56:56;;;;;;;62.43;33.03;;;;;;;3.87;71.53;98226.25;125650;1100;104516;-74
2020/12/04 10:59:23;;;;;;;62.17;33.60;;;;;;;3.89;71.87;98232.27;125655;1100;104586;-75
2020/12/04 11:02:09;;;;;;;65.33;34.37;;;;;;;3.93;71.46;98230.28;125678;1100;104530;-73
2020/12/04 11:07:39;;;;;;;68.43;36.70;;;;;;;4.00;71.68;98224.59;125419;1097;104439;-73
2020/12/04 11:10:06;;;;;;;66.30;33.73;;;;;;;4.02;71.54;98225.34;125558;1100;104526;-72
2020/12/04 11:12:33;;;;;;;67.57;36.20;;;;;;;4.01;71.82;98218.39;125678;1100;104562;-74
2020/12/04 11:14:59;;;;;;;65.87;33.30;;;;;;;4.01;71.83;98221.02;125613;1100;104590;-74
2020/12/04 11:17:27;;;;;;;62.20;33.35;;;;;;;4.00;71.55;98218.47;125707;1098;104474;-74